Xinxiang, China
Current Conditions -  °F | °C
As of 12:00 PM on Thursday 25 Dec 2014 (Local Time) from ZHCC Reporting Station
Haze Haze  
Wind Chill: 36°   Ceiling: Unl
Heat Index: 39°   Visibility: 2.5mi
Dew Point: 18°   Wind: 4mph
Humidity: 42%   Direction: 50°NE
Pressure: 30.5"   Gusts: NA
Location:  35.32°N, 113.87°E
Report Text: ZHCC 250400Z 05002MPS 360V080 4000 HZ NSC 04/M08 Q1033 NOSIG
Loading
Personal Weather Stations






























Interactive Weather Map New forecast layout! Learn more

10-Day Weather Forecast

Advertisements
Track Severe Weather on mobile